Wilson Algeciras — 9HA2471 — position and weather

sailwx.info

Track history (hours):
 
Tides and Currents Weather Stations Pressure Air Temp Water Temp Dewpoint Dewpoint Depression Visibility Wind Speed Wind Dir Waves Ship Positions

Wilson Algeciras

Last reported at 2016-May-22 00:26 UTC. Time now 2016-May-26 08:53 UTC.
Position N 31°11' E 029°52'.

Length 88 m; draft 5.3 m.

Type: Ship. MMSI: 248689000.

Date/timePositionNaut miles runAvg speedWind from/ knotsBaromVisibWave heightAir tempDewpointWater temp
2016-May-22 00:26N 31°11' E 029°52'  
2016-May-16 20:23N 35°34' E 016°07'28 9.6
2016-May-16 17:28N 35°40' E 015°33'9 9.7
2016-May-16 16:33N 35°42' E 015°23'9 9.4
2016-May-16 15:34N 35°44' E 015°12'11 9.5
2016-May-16 14:25N 35°47' E 014°59'8 9.4
2016-May-16 13:33N 35°49' E 014°49'10 9.5
2016-May-16 12:33N 35°55' E 014°40'3 3.1
2016-May-16 11:33N 35°56' E 014°36'6 2.7
2016-May-16 09:14N 35°49' E 014°35'0 0.0
2016-May-16 07:24N 35°49' E 014°35'0 0.0
2016-May-16 06:26N 35°49' E 014°35'2 2.5
2016-May-16 05:33N 35°51' E 014°37'10 9.8
2016-May-16 04:33N 35°60' E 014°31'1010.1
2016-May-16 03:33N 36°06' E 014°21'10 9.8
2016-May-16 02:33N 36°11' E 014°10'8 8.0
2016-May-16 01:33N 36°14' E 014°02'7 7.4
2016-May-16 00:33N 36°18' E 013°53'8 7.5
2016-May-15 23:33N 36°21' E 013°45'7 7.4
2016-May-15 22:33N 36°24' E 013°37'7 7.3
2016-May-15 21:33N 36°28' E 013°29'25 7.7
2016-May-15 18:15N 36°39' E 013°00'8 8.0
2016-May-15 17:14N 36°42' E 012°51'6 7.9
2016-May-15 16:29N 36°45' E 012°45'  
Track history (hours):
 
Tides and Currents Weather Stations Pressure Air Temp Water Temp Dewpoint Dewpoint Depression Visibility Wind Speed Wind Dir Waves Ship Positions

Wilson Algeciras

Last reported at 2016-May-22 00:26 UTC. Time now 2016-May-26 08:53 UTC.
Position N 31°11' E 029°52'.

Length 88 m; draft 5.3 m.

Type: Ship. MMSI: 248689000.

Date/timePositionNaut miles runAvg speedWind from/ knotsBaromVisibWave heightAir tempDewpointWater temp
2016-May-22 00:26N 31°11' E 029°52'  
2016-May-16 20:23N 35°34' E 016°07'28 9.6
2016-May-16 17:28N 35°40' E 015°33'9 9.7
2016-May-16 16:33N 35°42' E 015°23'9 9.4
2016-May-16 15:34N 35°44' E 015°12'11 9.5
2016-May-16 14:25N 35°47' E 014°59'8 9.4
2016-May-16 13:33N 35°49' E 014°49'10 9.5
2016-May-16 12:33N 35°55' E 014°40'3 3.1
2016-May-16 11:33N 35°56' E 014°36'6 2.7
2016-May-16 09:14N 35°49' E 014°35'0 0.0
2016-May-16 07:24N 35°49' E 014°35'0 0.0
2016-May-16 06:26N 35°49' E 014°35'2 2.5
2016-May-16 05:33N 35°51' E 014°37'10 9.8
2016-May-16 04:33N 35°60' E 014°31'1010.1
2016-May-16 03:33N 36°06' E 014°21'10 9.8
2016-May-16 02:33N 36°11' E 014°10'8 8.0
2016-May-16 01:33N 36°14' E 014°02'7 7.4
2016-May-16 00:33N 36°18' E 013°53'8 7.5
2016-May-15 23:33N 36°21' E 013°45'7 7.4
2016-May-15 22:33N 36°24' E 013°37'7 7.3
2016-May-15 21:33N 36°28' E 013°29'25 7.7
2016-May-15 18:15N 36°39' E 013°00'8 8.0
2016-May-15 17:14N 36°42' E 012°51'6 7.9
2016-May-15 16:29N 36°45' E 012°45'  

Dump ship's entire track history